sensor_id;sensor_type;location;lat;lon;timestamp;P1;durP1;ratioP1;P2;durP2;ratioP2
28335;SDS011;15592;53.656;7.276;2023-02-28T00:00:26;2.42;;;1.05;;
28335;SDS011;15592;53.656;7.276;2023-02-28T00:02:52;4.05;;;1.48;;
28335;SDS011;15592;53.656;7.276;2023-02-28T00:05:18;1.77;;;1.00;;
28335;SDS011;15592;53.656;7.276;2023-02-28T00:07:46;1.42;;;0.95;;
28335;SDS011;15592;53.656;7.276;2023-02-28T00:10:13;1.88;;;1.00;;
28335;SDS011;15592;53.656;7.276;2023-02-28T00:12:45;1.50;;;0.93;;
28335;SDS011;15592;53.656;7.276;2023-02-28T00:15:14;1.25;;;0.70;;
28335;SDS011;15592;53.656;7.276;2023-02-28T00:17:41;1.17;;;1.08;;
28335;SDS011;15592;53.656;7.276;2023-02-28T00:20:06;2.40;;;1.27;;
28335;SDS011;15592;53.656;7.276;2023-02-28T00:22:34;2.50;;;1.20;;
28335;SDS011;15592;53.656;7.276;2023-02-28T00:25:01;1.80;;;1.15;;
28335;SDS011;15592;53.656;7.276;2023-02-28T00:27:28;1.60;;;1.23;;
28335;SDS011;15592;53.656;7.276;2023-02-28T00:29:54;1.85;;;0.90;;
28335;SDS011;15592;53.656;7.276;2023-02-28T00:32:19;1.05;;;0.90;;
28335;SDS011;15592;53.656;7.276;2023-02-28T00:34:45;0.75;;;0.70;;
28335;SDS011;15592;53.656;7.276;2023-02-28T00:37:11;1.25;;;0.77;;
28335;SDS011;15592;53.656;7.276;2023-02-28T00:39:37;1.02;;;0.70;;
28335;SDS011;15592;53.656;7.276;2023-02-28T00:42:04;1.10;;;0.85;;
28335;SDS011;15592;53.656;7.276;2023-02-28T00:44:30;0.65;;;0.60;;
28335;SDS011;15592;53.656;7.276;2023-02-28T00:46:56;0.70;;;0.70;;
28335;SDS011;15592;53.656;7.276;2023-02-28T00:49:22;0.70;;;0.70;;
28335;SDS011;15592;53.656;7.276;2023-02-28T00:51:49;2.05;;;0.80;;
28335;SDS011;15592;53.656;7.276;2023-02-28T00:54:15;0.93;;;0.50;;
28335;SDS011;15592;53.656;7.276;2023-02-28T00:56:41;0.90;;;0.73;;
28335;SDS011;15592;53.656;7.276;2023-02-28T00:59:06;0.90;;;0.73;;
28335;SDS011;15592;53.656;7.276;2023-02-28T01:01:32;0.60;;;0.60;;
28335;SDS011;15592;53.656;7.276;2023-02-28T01:03:57;0.95;;;0.60;;
28335;SDS011;15592;53.656;7.276;2023-02-28T01:06:23;3.90;;;1.23;;
28335;SDS011;15592;53.656;7.276;2023-02-28T01:08:48;2.97;;;0.80;;
28335;SDS011;15592;53.656;7.276;2023-02-28T01:11:15;1.75;;;0.80;;
28335;SDS011;15592;53.656;7.276;2023-02-28T01:13:43;1.80;;;0.88;;
28335;SDS011;15592;53.656;7.276;2023-02-28T01:16:10;1.27;;;0.70;;
28335;SDS011;15592;53.656;7.276;2023-02-28T01:18:36;1.13;;;0.70;;
28335;SDS011;15592;53.656;7.276;2023-02-28T01:21:07;4.55;;;0.88;;
28335;SDS011;15592;53.656;7.276;2023-02-28T01:23:37;0.70;;;0.52;;
28335;SDS011;15592;53.656;7.276;2023-02-28T01:26:07;2.53;;;0.65;;
28335;SDS011;15592;53.656;7.276;2023-02-28T01:28:35;4.32;;;1.10;;
28335;SDS011;15592;53.656;7.276;2023-02-28T01:31:00;3.22;;;0.93;;
28335;SDS011;15592;53.656;7.276;2023-02-28T01:33:26;8.57;;;1.63;;
28335;SDS011;15592;53.656;7.276;2023-02-28T01:36:06;4.20;;;1.42;;
28335;SDS011;15592;53.656;7.276;2023-02-28T01:38:37;2.85;;;0.90;;
28335;SDS011;15592;53.656;7.276;2023-02-28T01:41:04;2.63;;;0.95;;
28335;SDS011;15592;53.656;7.276;2023-02-28T01:43:32;2.15;;;0.77;;
28335;SDS011;15592;53.656;7.276;2023-02-28T01:46:18;3.53;;;0.93;;
28335;SDS011;15592;53.656;7.276;2023-02-28T01:48:45;0.98;;;0.60;;
28335;SDS011;15592;53.656;7.276;2023-02-28T01:51:39;2.22;;;0.90;;
28335;SDS011;15592;53.656;7.276;2023-02-28T01:54:03;2.13;;;0.50;;
28335;SDS011;15592;53.656;7.276;2023-02-28T01:56:38;0.98;;;0.70;;
28335;SDS011;15592;53.656;7.276;2023-02-28T01:59:06;0.80;;;0.50;;
28335;SDS011;15592;53.656;7.276;2023-02-28T02:01:32;1.08;;;0.43;;
28335;SDS011;15592;53.656;7.276;2023-02-28T02:03:58;1.13;;;0.68;;
28335;SDS011;15592;53.656;7.276;2023-02-28T02:06:37;1.23;;;0.73;;
28335;SDS011;15592;53.656;7.276;2023-02-28T02:09:07;0.77;;;0.50;;
28335;SDS011;15592;53.656;7.276;2023-02-28T02:11:33;0.50;;;0.30;;
28335;SDS011;15592;53.656;7.276;2023-02-28T02:16:38;3.17;;;0.98;;
28335;SDS011;15592;53.656;7.276;2023-02-28T02:22:05;4.70;;;1.00;;
28335;SDS011;15592;53.656;7.276;2023-02-28T02:25:03;1.90;;;0.82;;
28335;SDS011;15592;53.656;7.276;2023-02-28T02:28:01;3.70;;;0.80;;
28335;SDS011;15592;53.656;7.276;2023-02-28T02:37:27;3.70;;;1.27;;
28335;SDS011;15592;53.656;7.276;2023-02-28T02:39:38;4.50;;;1.15;;
28335;SDS011;15592;53.656;7.276;2023-02-28T02:42:13;4.28;;;1.10;;
28335;SDS011;15592;53.656;7.276;2023-02-28T02:44:47;4.97;;;1.00;;
28335;SDS011;15592;53.656;7.276;2023-02-28T02:47:19;1.83;;;0.95;;
28335;SDS011;15592;53.656;7.276;2023-02-28T02:49:51;3.95;;;1.02;;
28335;SDS011;15592;53.656;7.276;2023-02-28T02:52:22;2.42;;;1.35;;
28335;SDS011;15592;53.656;7.276;2023-02-28T02:54:52;4.47;;;1.40;;
28335;SDS011;15592;53.656;7.276;2023-02-28T02:57:24;4.05;;;1.02;;
28335;SDS011;15592;53.656;7.276;2023-02-28T02:59:56;3.65;;;0.98;;
28335;SDS011;15592;53.656;7.276;2023-02-28T03:02:23;1.88;;;0.93;;
28335;SDS011;15592;53.656;7.276;2023-02-28T03:04:52;2.33;;;1.00;;
28335;SDS011;15592;53.656;7.276;2023-02-28T03:07:25;1.88;;;0.90;;
28335;SDS011;15592;53.656;7.276;2023-02-28T03:09:52;3.95;;;1.00;;
28335;SDS011;15592;53.656;7.276;2023-02-28T03:12:19;5.32;;;1.20;;
28335;SDS011;15592;53.656;7.276;2023-02-28T03:14:54;4.13;;;1.50;;
28335;SDS011;15592;53.656;7.276;2023-02-28T03:23:20;4.53;;;1.30;;
28335;SDS011;15592;53.656;7.276;2023-02-28T03:26:02;2.58;;;1.02;;
28335;SDS011;15592;53.656;7.276;2023-02-28T03:28:51;3.45;;;1.55;;
28335;SDS011;15592;53.656;7.276;2023-02-28T03:33:50;2.80;;;1.23;;
28335;SDS011;15592;53.656;7.276;2023-02-28T03:36:28;3.65;;;1.80;;
28335;SDS011;15592;53.656;7.276;2023-02-28T03:41:52;4.82;;;2.10;;
28335;SDS011;15592;53.656;7.276;2023-02-28T03:49:29;15.95;;;6.43;;
28335;SDS011;15592;53.656;7.276;2023-02-28T03:51:59;12.02;;;6.68;;
28335;SDS011;15592;53.656;7.276;2023-02-28T03:54:31;13.85;;;8.75;;
28335;SDS011;15592;53.656;7.276;2023-02-28T03:57:02;16.40;;;9.95;;
28335;SDS011;15592;53.656;7.276;2023-02-28T03:59:52;18.17;;;12.55;;
28335;SDS011;15592;53.656;7.276;2023-02-28T04:02:22;21.35;;;13.38;;
28335;SDS011;15592;53.656;7.276;2023-02-28T04:04:48;19.50;;;14.50;;
28335;SDS011;15592;53.656;7.276;2023-02-28T04:07:14;26.92;;;16.73;;
28335;SDS011;15592;53.656;7.276;2023-02-28T04:09:40;22.15;;;16.58;;
28335;SDS011;15592;53.656;7.276;2023-02-28T04:12:06;31.38;;;20.02;;
28335;SDS011;15592;53.656;7.276;2023-02-28T04:14:32;31.48;;;20.70;;
28335;SDS011;15592;53.656;7.276;2023-02-28T04:16:58;33.42;;;19.92;;
28335;SDS011;15592;53.656;7.276;2023-02-28T04:19:23;34.25;;;21.20;;
28335;SDS011;15592;53.656;7.276;2023-02-28T04:21:50;36.50;;;21.92;;
28335;SDS011;15592;53.656;7.276;2023-02-28T04:24:21;31.45;;;21.60;;
28335;SDS011;15592;53.656;7.276;2023-02-28T04:26:50;33.88;;;22.13;;
28335;SDS011;15592;53.656;7.276;2023-02-28T04:29:26;34.13;;;22.45;;
28335;SDS011;15592;53.656;7.276;2023-02-28T04:31:53;34.90;;;23.27;;
28335;SDS011;15592;53.656;7.276;2023-02-28T04:34:22;37.35;;;22.73;;
28335;SDS011;15592;53.656;7.276;2023-02-28T04:36:48;39.15;;;23.92;;
28335;SDS011;15592;53.656;7.276;2023-02-28T04:39:15;38.78;;;23.70;;
28335;SDS011;15592;53.656;7.276;2023-02-28T04:41:43;33.42;;;22.23;;
28335;SDS011;15592;53.656;7.276;2023-02-28T04:44:09;38.90;;;24.23;;
28335;SDS011;15592;53.656;7.276;2023-02-28T04:46:35;41.20;;;24.95;;
28335;SDS011;15592;53.656;7.276;2023-02-28T04:49:00;38.60;;;25.05;;
28335;SDS011;15592;53.656;7.276;2023-02-28T04:51:26;35.00;;;23.00;;
28335;SDS011;15592;53.656;7.276;2023-02-28T04:53:51;37.15;;;23.80;;
28335;SDS011;15592;53.656;7.276;2023-02-28T04:56:17;35.25;;;21.70;;
28335;SDS011;15592;53.656;7.276;2023-02-28T04:58:44;33.50;;;21.20;;
28335;SDS011;15592;53.656;7.276;2023-02-28T05:01:17;34.22;;;21.55;;
28335;SDS011;15592;53.656;7.276;2023-02-28T05:03:46;34.40;;;21.25;;
28335;SDS011;15592;53.656;7.276;2023-02-28T05:06:12;33.30;;;21.52;;
28335;SDS011;15592;53.656;7.276;2023-02-28T05:08:38;36.42;;;22.25;;
28335;SDS011;15592;53.656;7.276;2023-02-28T05:11:05;35.08;;;21.55;;
28335;SDS011;15592;53.656;7.276;2023-02-28T05:13:36;33.78;;;21.77;;
28335;SDS011;15592;53.656;7.276;2023-02-28T05:16:02;34.72;;;21.73;;
28335;SDS011;15592;53.656;7.276;2023-02-28T05:18:28;28.45;;;18.90;;
28335;SDS011;15592;53.656;7.276;2023-02-28T05:20:54;30.85;;;19.35;;
28335;SDS011;15592;53.656;7.276;2023-02-28T05:23:19;30.25;;;19.13;;
28335;SDS011;15592;53.656;7.276;2023-02-28T05:25:47;27.02;;;17.73;;
28335;SDS011;15592;53.656;7.276;2023-02-28T05:28:12;23.60;;;16.13;;
28335;SDS011;15592;53.656;7.276;2023-02-28T05:30:39;21.10;;;14.35;;
28335;SDS011;15592;53.656;7.276;2023-02-28T05:33:04;19.90;;;13.15;;
28335;SDS011;15592;53.656;7.276;2023-02-28T05:35:30;18.48;;;12.52;;
28335;SDS011;15592;53.656;7.276;2023-02-28T05:37:56;17.25;;;11.95;;
28335;SDS011;15592;53.656;7.276;2023-02-28T05:40:21;18.33;;;11.77;;
28335;SDS011;15592;53.656;7.276;2023-02-28T05:42:47;17.17;;;11.35;;
28335;SDS011;15592;53.656;7.276;2023-02-28T05:45:15;16.50;;;11.02;;
28335;SDS011;15592;53.656;7.276;2023-02-28T05:47:42;14.15;;;10.23;;
28335;SDS011;15592;53.656;7.276;2023-02-28T05:50:08;15.20;;;9.93;;
28335;SDS011;15592;53.656;7.276;2023-02-28T05:52:35;16.48;;;10.75;;
28335;SDS011;15592;53.656;7.276;2023-02-28T05:55:01;19.50;;;12.73;;
28335;SDS011;15592;53.656;7.276;2023-02-28T05:57:27;20.38;;;13.18;;
28335;SDS011;15592;53.656;7.276;2023-02-28T05:59:52;23.27;;;15.45;;
28335;SDS011;15592;53.656;7.276;2023-02-28T06:02:18;24.38;;;16.45;;
28335;SDS011;15592;53.656;7.276;2023-02-28T06:04:44;25.42;;;16.10;;
28335;SDS011;15592;53.656;7.276;2023-02-28T06:07:10;21.40;;;15.13;;
28335;SDS011;15592;53.656;7.276;2023-02-28T06:09:36;19.98;;;13.85;;
28335;SDS011;15592;53.656;7.276;2023-02-28T06:12:03;22.17;;;14.20;;
28335;SDS011;15592;53.656;7.276;2023-02-28T06:14:30;23.35;;;15.73;;
28335;SDS011;15592;53.656;7.276;2023-02-28T06:16:57;24.92;;;15.23;;
28335;SDS011;15592;53.656;7.276;2023-02-28T06:19:24;25.05;;;15.80;;
28335;SDS011;15592;53.656;7.276;2023-02-28T06:21:53;27.27;;;16.45;;
28335;SDS011;15592;53.656;7.276;2023-02-28T06:24:20;24.90;;;16.15;;
28335;SDS011;15592;53.656;7.276;2023-02-28T06:26:47;25.77;;;15.45;;
28335;SDS011;15592;53.656;7.276;2023-02-28T06:29:13;28.30;;;15.68;;
28335;SDS011;15592;53.656;7.276;2023-02-28T06:34:09;27.15;;;14.68;;
28335;SDS011;15592;53.656;7.276;2023-02-28T06:36:37;25.77;;;15.32;;
28335;SDS011;15592;53.656;7.276;2023-02-28T06:39:03;22.52;;;14.20;;
28335;SDS011;15592;53.656;7.276;2023-02-28T06:41:29;22.27;;;14.15;;
28335;SDS011;15592;53.656;7.276;2023-02-28T06:43:54;25.10;;;15.23;;
28335;SDS011;15592;53.656;7.276;2023-02-28T06:46:20;23.52;;;15.35;;
28335;SDS011;15592;53.656;7.276;2023-02-28T06:48:46;24.27;;;14.55;;
28335;SDS011;15592;53.656;7.276;2023-02-28T06:51:13;28.92;;;15.02;;
28335;SDS011;15592;53.656;7.276;2023-02-28T06:53:41;27.27;;;15.75;;
28335;SDS011;15592;53.656;7.276;2023-02-28T06:56:14;27.15;;;16.08;;
28335;SDS011;15592;53.656;7.276;2023-02-28T06:58:41;30.92;;;18.25;;
28335;SDS011;15592;53.656;7.276;2023-02-28T07:01:07;32.28;;;19.40;;
28335;SDS011;15592;53.656;7.276;2023-02-28T07:03:34;37.92;;;20.38;;
28335;SDS011;15592;53.656;7.276;2023-02-28T07:06:01;34.22;;;19.45;;
28335;SDS011;15592;53.656;7.276;2023-02-28T07:08:27;33.88;;;18.77;;
28335;SDS011;15592;53.656;7.276;2023-02-28T07:10:54;30.23;;;17.73;;
28335;SDS011;15592;53.656;7.276;2023-02-28T07:13:20;34.08;;;19.58;;
28335;SDS011;15592;53.656;7.276;2023-02-28T07:15:52;34.42;;;19.25;;
28335;SDS011;15592;53.656;7.276;2023-02-28T07:18:19;34.22;;;18.80;;
28335;SDS011;15592;53.656;7.276;2023-02-28T07:20:44;33.47;;;18.60;;
28335;SDS011;15592;53.656;7.276;2023-02-28T07:23:10;32.90;;;18.05;;
28335;SDS011;15592;53.656;7.276;2023-02-28T07:25:35;32.55;;;17.95;;
28335;SDS011;15592;53.656;7.276;2023-02-28T07:28:01;28.95;;;16.55;;
28335;SDS011;15592;53.656;7.276;2023-02-28T07:30:27;33.47;;;18.63;;
28335;SDS011;15592;53.656;7.276;2023-02-28T07:32:52;34.03;;;18.33;;
28335;SDS011;15592;53.656;7.276;2023-02-28T07:35:19;33.85;;;17.25;;
28335;SDS011;15592;53.656;7.276;2023-02-28T07:37:45;35.67;;;18.05;;
28335;SDS011;15592;53.656;7.276;2023-02-28T07:40:12;32.33;;;16.73;;
28335;SDS011;15592;53.656;7.276;2023-02-28T07:42:38;31.85;;;16.83;;
28335;SDS011;15592;53.656;7.276;2023-02-28T07:45:05;34.28;;;16.67;;
28335;SDS011;15592;53.656;7.276;2023-02-28T07:47:31;31.33;;;17.40;;
28335;SDS011;15592;53.656;7.276;2023-02-28T07:49:57;34.53;;;18.00;;
28335;SDS011;15592;53.656;7.276;2023-02-28T07:52:23;32.05;;;17.52;;
28335;SDS011;15592;53.656;7.276;2023-02-28T07:54:52;28.67;;;16.15;;
28335;SDS011;15592;53.656;7.276;2023-02-28T07:57:17;33.75;;;16.73;;
28335;SDS011;15592;53.656;7.276;2023-02-28T07:59:43;31.23;;;17.23;;
28335;SDS011;15592;53.656;7.276;2023-02-28T08:02:12;31.00;;;17.20;;
28335;SDS011;15592;53.656;7.276;2023-02-28T08:04:39;28.33;;;16.83;;
28335;SDS011;15592;53.656;7.276;2023-02-28T08:07:05;30.88;;;16.83;;
28335;SDS011;15592;53.656;7.276;2023-02-28T08:09:30;27.33;;;16.30;;
28335;SDS011;15592;53.656;7.276;2023-02-28T08:11:56;28.98;;;16.75;;
28335;SDS011;15592;53.656;7.276;2023-02-28T08:14:22;30.98;;;15.82;;
28335;SDS011;15592;53.656;7.276;2023-02-28T08:16:47;27.88;;;15.65;;
28335;SDS011;15592;53.656;7.276;2023-02-28T08:19:13;31.05;;;16.88;;
28335;SDS011;15592;53.656;7.276;2023-02-28T08:21:39;32.33;;;17.17;;
28335;SDS011;15592;53.656;7.276;2023-02-28T08:24:05;34.10;;;17.35;;
28335;SDS011;15592;53.656;7.276;2023-02-28T08:26:31;31.60;;;17.02;;
28335;SDS011;15592;53.656;7.276;2023-02-28T08:28:56;29.48;;;16.45;;
28335;SDS011;15592;53.656;7.276;2023-02-28T08:31:22;25.58;;;14.20;;
28335;SDS011;15592;53.656;7.276;2023-02-28T08:33:48;23.85;;;14.45;;
28335;SDS011;15592;53.656;7.276;2023-02-28T08:36:16;28.20;;;16.20;;
28335;SDS011;15592;53.656;7.276;2023-02-28T08:38:42;29.90;;;16.98;;
28335;SDS011;15592;53.656;7.276;2023-02-28T08:41:09;26.60;;;15.38;;
28335;SDS011;15592;53.656;7.276;2023-02-28T08:43:37;30.77;;;16.95;;
28335;SDS011;15592;53.656;7.276;2023-02-28T08:46:03;25.92;;;16.42;;
28335;SDS011;15592;53.656;7.276;2023-02-28T08:48:29;24.75;;;16.17;;
28335;SDS011;15592;53.656;7.276;2023-02-28T08:53:26;23.33;;;13.63;;
28335;SDS011;15592;53.656;7.276;2023-02-28T08:55:56;22.15;;;13.38;;
28335;SDS011;15592;53.656;7.276;2023-02-28T08:58:25;22.63;;;13.80;;
28335;SDS011;15592;53.656;7.276;2023-02-28T09:00:52;18.58;;;12.52;;
28335;SDS011;15592;53.656;7.276;2023-02-28T09:03:18;15.85;;;10.65;;
28335;SDS011;15592;53.656;7.276;2023-02-28T09:08:23;18.15;;;11.73;;
28335;SDS011;15592;53.656;7.276;2023-02-28T09:10:50;17.67;;;10.80;;
28335;SDS011;15592;53.656;7.276;2023-02-28T09:13:16;18.10;;;11.07;;
28335;SDS011;15592;53.656;7.276;2023-02-28T09:15:41;20.80;;;11.98;;
28335;SDS011;15592;53.656;7.276;2023-02-28T09:18:07;18.10;;;11.88;;
28335;SDS011;15592;53.656;7.276;2023-02-28T09:20:33;18.98;;;11.73;;
28335;SDS011;15592;53.656;7.276;2023-02-28T09:22:58;16.00;;;9.85;;
28335;SDS011;15592;53.656;7.276;2023-02-28T09:25:24;14.00;;;9.50;;
28335;SDS011;15592;53.656;7.276;2023-02-28T09:27:50;13.52;;;9.35;;
28335;SDS011;15592;53.656;7.276;2023-02-28T09:30:15;13.75;;;9.07;;
28335;SDS011;15592;53.656;7.276;2023-02-28T09:32:41;16.88;;;11.38;;
28335;SDS011;15592;53.656;7.276;2023-02-28T09:35:07;14.10;;;9.25;;
28335;SDS011;15592;53.656;7.276;2023-02-28T09:37:38;12.73;;;8.45;;
28335;SDS011;15592;53.656;7.276;2023-02-28T09:40:04;13.07;;;9.43;;
28335;SDS011;15592;53.656;7.276;2023-02-28T09:42:31;14.45;;;10.05;;
28335;SDS011;15592;53.656;7.276;2023-02-28T09:44:58;13.60;;;9.57;;
28335;SDS011;15592;53.656;7.276;2023-02-28T09:47:27;14.70;;;10.05;;
28335;SDS011;15592;53.656;7.276;2023-02-28T09:49:54;14.32;;;10.30;;
28335;SDS011;15592;53.656;7.276;2023-02-28T09:52:25;17.45;;;10.77;;
28335;SDS011;15592;53.656;7.276;2023-02-28T09:55:21;14.25;;;9.55;;
28335;SDS011;15592;53.656;7.276;2023-02-28T09:57:47;10.77;;;8.25;;
28335;SDS011;15592;53.656;7.276;2023-02-28T10:00:18;12.80;;;8.57;;
28335;SDS011;15592;53.656;7.276;2023-02-28T10:03:04;10.10;;;6.75;;
28335;SDS011;15592;53.656;7.276;2023-02-28T10:05:47;11.10;;;8.02;;
28335;SDS011;15592;53.656;7.276;2023-02-28T10:11:14;13.38;;;9.45;;
28335;SDS011;15592;53.656;7.276;2023-02-28T10:16:44;12.23;;;8.25;;
28335;SDS011;15592;53.656;7.276;2023-02-28T10:19:38;11.98;;;7.70;;
28335;SDS011;15592;53.656;7.276;2023-02-28T10:27:26;10.43;;;7.90;;
28335;SDS011;15592;53.656;7.276;2023-02-28T10:29:55;10.20;;;7.72;;
28335;SDS011;15592;53.656;7.276;2023-02-28T10:32:25;12.38;;;8.30;;
28335;SDS011;15592;53.656;7.276;2023-02-28T10:34:57;9.95;;;7.20;;
28335;SDS011;15592;53.656;7.276;2023-02-28T10:37:42;10.25;;;7.60;;
28335;SDS011;15592;53.656;7.276;2023-02-28T10:43:18;7.45;;;5.55;;
28335;SDS011;15592;53.656;7.276;2023-02-28T10:45:53;7.30;;;5.50;;
28335;SDS011;15592;53.656;7.276;2023-02-28T10:50:55;8.10;;;5.97;;
28335;SDS011;15592;53.656;7.276;2023-02-28T11:00:56;6.45;;;5.28;;
28335;SDS011;15592;53.656;7.276;2023-02-28T11:05:50;7.57;;;5.10;;
28335;SDS011;15592;53.656;7.276;2023-02-28T11:08:16;6.60;;;4.43;;
28335;SDS011;15592;53.656;7.276;2023-02-28T11:10:47;5.35;;;4.05;;
28335;SDS011;15592;53.656;7.276;2023-02-28T11:13:21;5.18;;;3.85;;
28335;SDS011;15592;53.656;7.276;2023-02-28T11:15:53;5.10;;;3.88;;
28335;SDS011;15592;53.656;7.276;2023-02-28T11:21:29;5.82;;;3.83;;
28335;SDS011;15592;53.656;7.276;2023-02-28T11:26:44;5.93;;;3.92;;
28335;SDS011;15592;53.656;7.276;2023-02-28T11:29:12;5.30;;;3.92;;
28335;SDS011;15592;53.656;7.276;2023-02-28T11:34:42;5.43;;;3.85;;
28335;SDS011;15592;53.656;7.276;2023-02-28T11:37:13;9.63;;;5.55;;
28335;SDS011;15592;53.656;7.276;2023-02-28T11:39:44;8.77;;;5.68;;
28335;SDS011;15592;53.656;7.276;2023-02-28T11:55:39;8.63;;;6.25;;
28335;SDS011;15592;53.656;7.276;2023-02-28T11:58:33;9.60;;;6.40;;
28335;SDS011;15592;53.656;7.276;2023-02-28T12:01:21;8.02;;;5.47;;
28335;SDS011;15592;53.656;7.276;2023-02-28T12:09:36;9.02;;;6.43;;
28335;SDS011;15592;53.656;7.276;2023-02-28T12:12:16;7.47;;;5.20;;
28335;SDS011;15592;53.656;7.276;2023-02-28T12:26:23;7.82;;;6.10;;
28335;SDS011;15592;53.656;7.276;2023-02-28T12:28:53;7.90;;;6.15;;
28335;SDS011;15592;53.656;7.276;2023-02-28T12:31:30;10.48;;;7.13;;
28335;SDS011;15592;53.656;7.276;2023-02-28T12:34:02;13.63;;;8.68;;
28335;SDS011;15592;53.656;7.276;2023-02-28T12:39:09;9.50;;;6.65;;
28335;SDS011;15592;53.656;7.276;2023-02-28T12:41:53;8.50;;;6.25;;
28335;SDS011;15592;53.656;7.276;2023-02-28T12:44:29;10.07;;;7.13;;
28335;SDS011;15592;53.656;7.276;2023-02-28T12:47:00;9.98;;;7.38;;
28335;SDS011;15592;53.656;7.276;2023-02-28T12:49:31;15.20;;;10.27;;
28335;SDS011;15592;53.656;7.276;2023-02-28T12:52:02;13.90;;;8.18;;
28335;SDS011;15592;53.656;7.276;2023-02-28T13:00:04;12.35;;;8.48;;
28335;SDS011;15592;53.656;7.276;2023-02-28T13:10:47;13.68;;;9.88;;
28335;SDS011;15592;53.656;7.276;2023-02-28T13:13:20;13.23;;;8.40;;
28335;SDS011;15592;53.656;7.276;2023-02-28T13:18:34;8.52;;;6.38;;
28335;SDS011;15592;53.656;7.276;2023-02-28T13:21:06;9.15;;;5.72;;
28335;SDS011;15592;53.656;7.276;2023-02-28T13:26:21;6.70;;;5.43;;
28335;SDS011;15592;53.656;7.276;2023-02-28T13:34:27;17.77;;;10.80;;
28335;SDS011;15592;53.656;7.276;2023-02-28T13:37:20;18.33;;;10.82;;
28335;SDS011;15592;53.656;7.276;2023-02-28T13:42:36;15.98;;;9.50;;
28335;SDS011;15592;53.656;7.276;2023-02-28T13:45:24;16.73;;;10.07;;
28335;SDS011;15592;53.656;7.276;2023-02-28T13:47:56;20.77;;;10.23;;
28335;SDS011;15592;53.656;7.276;2023-02-28T13:50:27;16.25;;;10.77;;
28335;SDS011;15592;53.656;7.276;2023-02-28T13:58:12;18.83;;;10.18;;
28335;SDS011;15592;53.656;7.276;2023-02-28T14:06:33;24.48;;;12.35;;
28335;SDS011;15592;53.656;7.276;2023-02-28T14:11:38;15.98;;;10.40;;
28335;SDS011;15592;53.656;7.276;2023-02-28T14:14:11;12.80;;;9.23;;
28335;SDS011;15592;53.656;7.276;2023-02-28T14:17:03;15.30;;;9.18;;
28335;SDS011;15592;53.656;7.276;2023-02-28T14:19:32;16.38;;;9.70;;
28335;SDS011;15592;53.656;7.276;2023-02-28T14:24:46;14.50;;;9.82;;
28335;SDS011;15592;53.656;7.276;2023-02-28T14:33:05;11.60;;;8.80;;
28335;SDS011;15592;53.656;7.276;2023-02-28T14:38:42;16.30;;;9.68;;
28335;SDS011;15592;53.656;7.276;2023-02-28T14:44:19;16.13;;;10.20;;
28335;SDS011;15592;53.656;7.276;2023-02-28T14:46:48;15.48;;;10.05;;
28335;SDS011;15592;53.656;7.276;2023-02-28T14:54:37;15.48;;;8.80;;
28335;SDS011;15592;53.656;7.276;2023-02-28T14:57:03;17.50;;;9.38;;
28335;SDS011;15592;53.656;7.276;2023-02-28T14:59:31;15.43;;;8.77;;
28335;SDS011;15592;53.656;7.276;2023-02-28T15:02:17;18.48;;;9.23;;
28335;SDS011;15592;53.656;7.276;2023-02-28T15:04:54;12.10;;;8.80;;
28335;SDS011;15592;53.656;7.276;2023-02-28T15:07:25;13.18;;;9.10;;
28335;SDS011;15592;53.656;7.276;2023-02-28T15:10:11;12.63;;;9.05;;
28335;SDS011;15592;53.656;7.276;2023-02-28T15:12:52;11.82;;;8.30;;
28335;SDS011;15592;53.656;7.276;2023-02-28T15:15:28;12.95;;;8.60;;
28335;SDS011;15592;53.656;7.276;2023-02-28T15:18:21;15.57;;;9.27;;
28335;SDS011;15592;53.656;7.276;2023-02-28T15:21:05;12.65;;;8.57;;
28335;SDS011;15592;53.656;7.276;2023-02-28T15:23:36;16.27;;;9.07;;
28335;SDS011;15592;53.656;7.276;2023-02-28T15:26:02;12.73;;;7.90;;
28335;SDS011;15592;53.656;7.276;2023-02-28T15:28:29;11.07;;;7.80;;
28335;SDS011;15592;53.656;7.276;2023-02-28T15:30:56;12.40;;;7.13;;
28335;SDS011;15592;53.656;7.276;2023-02-28T15:33:30;10.52;;;7.00;;
28335;SDS011;15592;53.656;7.276;2023-02-28T15:36:07;33.78;;;8.10;;
28335;SDS011;15592;53.656;7.276;2023-02-28T15:38:47;16.60;;;8.05;;
28335;SDS011;15592;53.656;7.276;2023-02-28T15:41:26;11.45;;;7.82;;
28335;SDS011;15592;53.656;7.276;2023-02-28T15:47:04;9.85;;;7.35;;
28335;SDS011;15592;53.656;7.276;2023-02-28T15:52:19;11.90;;;7.75;;
28335;SDS011;15592;53.656;7.276;2023-02-28T15:54:54;12.20;;;8.43;;
28335;SDS011;15592;53.656;7.276;2023-02-28T15:57:24;13.27;;;8.27;;
28335;SDS011;15592;53.656;7.276;2023-02-28T15:59:54;14.77;;;8.93;;
28335;SDS011;15592;53.656;7.276;2023-02-28T16:02:35;16.77;;;9.07;;
28335;SDS011;15592;53.656;7.276;2023-02-28T16:07:34;11.23;;;8.13;;
28335;SDS011;15592;53.656;7.276;2023-02-28T16:10:02;13.65;;;7.93;;
28335;SDS011;15592;53.656;7.276;2023-02-28T16:12:29;11.18;;;8.18;;
28335;SDS011;15592;53.656;7.276;2023-02-28T16:14:57;12.63;;;7.38;;
28335;SDS011;15592;53.656;7.276;2023-02-28T16:17:26;12.23;;;7.90;;
28335;SDS011;15592;53.656;7.276;2023-02-28T16:19:54;12.05;;;8.35;;
28335;SDS011;15592;53.656;7.276;2023-02-28T16:22:20;15.52;;;8.70;;
28335;SDS011;15592;53.656;7.276;2023-02-28T16:24:47;14.68;;;8.07;;
28335;SDS011;15592;53.656;7.276;2023-02-28T16:27:28;11.10;;;7.57;;
28335;SDS011;15592;53.656;7.276;2023-02-28T16:29:56;9.93;;;7.10;;
28335;SDS011;15592;53.656;7.276;2023-02-28T16:32:22;13.07;;;7.93;;
28335;SDS011;15592;53.656;7.276;2023-02-28T16:34:47;11.05;;;6.95;;
28335;SDS011;15592;53.656;7.276;2023-02-28T16:37:14;10.43;;;7.05;;
28335;SDS011;15592;53.656;7.276;2023-02-28T16:39:42;11.30;;;7.40;;
28335;SDS011;15592;53.656;7.276;2023-02-28T16:42:30;10.07;;;6.80;;
28335;SDS011;15592;53.656;7.276;2023-02-28T16:44:55;9.18;;;6.03;;
28335;SDS011;15592;53.656;7.276;2023-02-28T16:47:22;10.43;;;6.20;;
28335;SDS011;15592;53.656;7.276;2023-02-28T16:49:51;10.02;;;6.85;;
28335;SDS011;15592;53.656;7.276;2023-02-28T16:52:17;10.95;;;6.65;;
28335;SDS011;15592;53.656;7.276;2023-02-28T16:54:43;12.35;;;7.50;;
28335;SDS011;15592;53.656;7.276;2023-02-28T16:57:15;9.65;;;6.90;;
28335;SDS011;15592;53.656;7.276;2023-02-28T16:59:46;10.02;;;6.07;;
28335;SDS011;15592;53.656;7.276;2023-02-28T17:02:16;8.57;;;6.07;;
28335;SDS011;15592;53.656;7.276;2023-02-28T17:04:46;9.43;;;6.43;;
28335;SDS011;15592;53.656;7.276;2023-02-28T17:07:12;11.95;;;6.28;;
28335;SDS011;15592;53.656;7.276;2023-02-28T17:09:40;8.50;;;5.80;;
28335;SDS011;15592;53.656;7.276;2023-02-28T17:12:06;9.00;;;5.78;;
28335;SDS011;15592;53.656;7.276;2023-02-28T17:14:32;8.50;;;5.40;;
28335;SDS011;15592;53.656;7.276;2023-02-28T17:16:58;9.38;;;6.20;;
28335;SDS011;15592;53.656;7.276;2023-02-28T17:19:23;9.95;;;5.32;;
28335;SDS011;15592;53.656;7.276;2023-02-28T17:21:49;7.32;;;5.32;;
28335;SDS011;15592;53.656;7.276;2023-02-28T17:24:15;6.95;;;4.40;;
28335;SDS011;15592;53.656;7.276;2023-02-28T17:26:41;5.95;;;4.00;;
28335;SDS011;15592;53.656;7.276;2023-02-28T17:29:13;4.93;;;4.00;;
28335;SDS011;15592;53.656;7.276;2023-02-28T17:31:41;5.80;;;3.90;;
28335;SDS011;15592;53.656;7.276;2023-02-28T17:34:07;6.32;;;4.30;;
28335;SDS011;15592;53.656;7.276;2023-02-28T17:36:33;5.82;;;3.75;;
28335;SDS011;15592;53.656;7.276;2023-02-28T17:39:00;5.00;;;3.55;;
28335;SDS011;15592;53.656;7.276;2023-02-28T17:41:26;4.43;;;3.20;;